Time,TemperatureF,DewpointF,PressureIn,WindDirection,WindDirectionDegrees,WindSpeedMPH,WindSpeedGustMPH,Humidity,HourlyPrecipIn,Conditions,Clouds,dailyrainin,SolarRadiationWatts/m^2,SoftwareType,DateUTC
2013-05-12 00:01:00,83.0,32.0,-100.00,East,96,0.0,2.0,16,0.00,,,0.00,0.000000,,2013-05-12 07:01:00,
2013-05-12 01:32:00,75.0,30.0,-100.00,East,83,1.0,2.0,19,-99.99,,,0.00,0.000000,,2013-05-12 08:32:00,
2013-05-12 02:33:00,76.0,31.0,-100.00,East,81,1.0,2.0,19,0.00,,,0.00,0.000000,,2013-05-12 09:33:00,
2013-05-12 03:33:00,73.0,31.0,-100.00,East,80,1.0,3.0,21,0.00,,,0.00,0.000000,,2013-05-12 10:33:00,
2013-05-12 03:42:00,73.0,31.0,-100.00,East,80,1.0,3.0,21,0.00,,,0.00,0.000000,,2013-05-12 10:42:00,
2013-05-12 04:32:00,73.0,31.0,-100.00,East,82,0.0,3.0,21,0.00,,,0.00,0.000000,,2013-05-12 11:32:00,
2013-05-12 06:32:00,69.0,27.0,-100.00,NE,51,1.0,6.0,21,-99.99,,,0.00,0.000000,,2013-05-12 13:32:00,
2013-05-12 07:42:00,71.0,24.0,-100.00,NNW,345,0.0,5.0,17,0.00,,,0.00,8.000000,,2013-05-12 14:42:00,
2013-05-12 08:34:00,77.0,16.0,-100.00,ESE,104,3.0,6.0,10,0.00,,,-99.99,172.000000,,2013-05-12 15:34:00,
2013-05-12 09:33:00,90.0,24.0,-100.00,ESE,120,6.0,6.0,9,-99.99,,,0.00,430.000000,,2013-05-12 16:33:00,
2013-05-12 10:42:00,93.0,26.0,-100.00,South,169,8.0,14.0,9,0.00,,,0.00,693.000000,,2013-05-12 17:42:00,
2013-05-12 11:32:00,96.0,28.0,-100.00,SE,131,6.0,13.0,9,0.00,,,0.00,925.000000,,2013-05-12 18:32:00,
2013-05-12 12:32:00,97.0,26.0,-100.00,ESE,110,4.0,12.0,8,0.00,,,0.00,1105.000000,,2013-05-12 19:32:00,
2013-05-12 13:42:00,103.0,27.0,-100.00,SW,218,4.0,11.0,7,0.00,,,0.00,1220.000000,,2013-05-12 20:42:00,
2013-05-12 13:52:00,103.0,27.0,-100.00,SW,218,4.0,11.0,7,0.00,,,0.00,1220.000000,,2013-05-12 20:52:00,
2013-05-12 14:33:00,101.0,22.0,-100.00,WSW,241,2.0,11.0,6,0.00,,,0.00,1256.000000,,2013-05-12 21:33:00,
2013-05-12 15:33:00,106.0,25.0,-100.00,SE,128,5.0,10.0,6,0.00,,,0.00,1226.000000,,2013-05-12 22:33:00,
2013-05-12 15:52:00,106.0,25.0,-100.00,SE,128,5.0,10.0,6,0.00,,,0.00,1226.000000,,2013-05-12 22:52:00,
2013-05-12 16:02:00,106.0,25.0,-100.00,SE,128,5.0,10.0,6,0.00,,,0.00,1226.000000,,2013-05-12 23:02:00,
2013-05-12 16:42:00,103.0,23.0,-100.00,SSE,147,5.0,15.0,6,0.00,,,0.00,1107.000000,,2013-05-12 23:42:00,
2013-05-12 16:52:00,103.0,23.0,-100.00,SSE,147,5.0,15.0,6,0.00,,,0.00,1107.000000,,2013-05-12 23:52:00,
2013-05-12 18:42:00,105.0,25.0,-100.00,SSW,207,6.0,11.0,6,-99.99,,,0.00,682.000000,,2013-05-13 01:42:00,
2013-05-12 18:52:00,105.0,25.0,-100.00,SSW,207,6.0,11.0,6,-99.99,,,0.00,682.000000,,2013-05-13 01:52:00,
2013-05-12 19:32:00,103.0,30.0,-100.00,West,277,10.0,11.0,8,0.00,,,0.00,407.000000,,2013-05-13 02:32:00,
2013-05-12 20:01:00,103.0,30.0,-100.00,West,277,10.0,11.0,8,0.00,,,0.00,407.000000,,2013-05-13 03:01:00,
2013-05-12 20:33:00,99.0,30.0,-100.00,West,281,7.0,15.0,9,0.00,,,-99.99,149.000000,,2013-05-13 03:33:00,
2013-05-12 21:33:00,96.0,31.0,-100.00,WNW,299,6.0,13.0,10,0.00,,,0.00,6.000000,,2013-05-13 04:33:00,
2013-05-12 22:42:00,92.0,32.0,-100.00,NNW,337,4.0,9.0,12,-99.99,,,0.00,0.000000,,2013-05-13 05:42:00,
2013-05-12 22:52:00,92.0,32.0,-100.00,NNW,337,4.0,9.0,12,-99.99,,,0.00,0.000000,,2013-05-13 05:52:00,
2013-05-12 23:01:00,92.0,32.0,-100.00,NNW,337,4.0,9.0,12,-99.99,,,0.00,0.000000,,2013-05-13 06:01:00,
2013-05-12 23:32:00,89.0,32.0,-100.00,East,95,1.0,8.0,13,0.00,,,0.00,0.000000,,2013-05-13 06:32:00,